Hovedside
METAR-TAF:

METAR-TAF

Lufthavner :

Pekanbaru, Indonesia

breddegrad: 00-28N, lengdegrad: 101-27E, høyde over havet: 31 m

Gjeldene værobservasjon

Denne rapporten ble laget for 36 minutter siden, klokken 12:00 UTC
Vind 4 kt fra Sør-sørøst
Temperatur 26°C
Luftfuktighet 89%
Trykk 1007 hPa
Sikt: 7000 m
Spredte skyer i en høyde av 1000 ft

METAR: WIBB 221200Z 16004KT 7000 SCT010 26/24 Q1007 NOSIG

Tid: 19:36 (12:36 UTC)


TAF: fraværende

Værobservasjoner og værvarsel for over 4000 flyplasser (METAR- og TAF-rapporter).

Tilgjengelige stasjoner er representert av de røde og gule prikkene på kartet.

Hold musepekeren over prikken for å se navnet på stasjonen.

Klikk så for å se værobservasjoner og -varsler.

For å forandre kartet kan du klikke på den grønne knappen med svart kryss for å zoome inn, på den grønne knappen med strek for å zoome ut, eller på de grønne pilene for å se tilstøtende kart.


METAR-TAF: